createdAt,value
2023-04-28T00:02:10.013Z,66.95
2023-04-28T00:04:36.880Z,66.07
2023-04-28T00:07:03.590Z,67.70
2023-04-28T00:09:30.265Z,67.55
2023-04-28T00:11:56.958Z,67.09
2023-04-28T00:14:23.619Z,67.32
2023-04-28T00:16:50.430Z,67.63
2023-04-28T00:19:17.114Z,68.66
2023-04-28T00:21:43.932Z,68.65
2023-04-28T00:24:10.544Z,69.16
2023-04-28T00:26:37.318Z,69.94
2023-04-28T00:29:03.967Z,69.02
2023-04-28T00:31:30.575Z,68.25
2023-04-28T00:33:57.317Z,68.40
2023-04-28T00:36:26.055Z,68.85
2023-04-28T00:38:52.735Z,68.93
2023-04-28T00:41:19.373Z,69.76
2023-04-28T00:43:47.955Z,70.52
2023-04-28T00:46:25.463Z,70.28
2023-04-28T00:48:52.419Z,69.41
2023-04-28T00:51:19.323Z,72.58
2023-04-28T00:53:46.092Z,73.12
2023-04-28T00:56:12.829Z,70.82
2023-04-28T00:58:39.665Z,69.73
2023-04-28T01:01:07.981Z,71.00
2023-04-28T01:03:36.816Z,70.68
2023-04-28T01:06:08.653Z,69.94
2023-04-28T01:08:37.459Z,70.30
2023-04-28T01:11:04.488Z,68.97
2023-04-28T01:13:31.153Z,67.93
2023-04-28T01:15:58.079Z,68.86
2023-04-28T01:18:25.674Z,69.03
2023-04-28T01:20:52.488Z,70.86
2023-04-28T01:23:19.258Z,71.54
2023-04-28T01:25:45.906Z,70.92
2023-04-28T01:28:12.535Z,70.08
2023-04-28T01:30:39.267Z,70.00
2023-04-28T01:33:06.027Z,70.22
2023-04-28T01:35:32.671Z,69.67
2023-04-28T01:37:59.423Z,71.30
2023-04-28T01:40:26.050Z,71.66
2023-04-28T01:42:52.664Z,72.87
2023-04-28T01:45:19.330Z,73.27
2023-04-28T01:47:46.123Z,72.80
2023-04-28T01:50:13.173Z,72.52
2023-04-28T01:52:39.859Z,72.31
2023-04-28T01:55:06.869Z,71.48
2023-04-28T01:57:33.748Z,72.90
2023-04-28T02:00:00.358Z,72.68
2023-04-28T02:02:27.160Z,74.24
2023-04-28T02:04:53.914Z,73.53
2023-04-28T02:07:20.698Z,73.61
2023-04-28T02:09:47.496Z,73.20
2023-04-28T02:12:14.148Z,72.74
2023-04-28T02:14:40.863Z,69.51
2023-04-28T02:17:07.598Z,68.56
2023-04-28T02:19:34.272Z,69.34
2023-04-28T02:22:00.905Z,70.63
2023-04-28T02:24:27.537Z,71.40
2023-04-28T02:26:54.275Z,72.57
2023-04-28T02:29:20.937Z,73.18
2023-04-28T02:31:47.711Z,72.04
2023-04-28T02:34:14.795Z,72.83
2023-04-28T02:36:41.606Z,73.71
2023-04-28T02:39:08.324Z,73.93
2023-04-28T02:41:34.992Z,74.38
2023-04-28T02:44:01.774Z,73.40
2023-04-28T02:46:29.671Z,74.22
2023-04-28T02:48:56.322Z,73.78
2023-04-28T02:51:26.295Z,75.30
2023-04-28T02:53:53.260Z,74.08
2023-04-28T02:56:19.908Z,73.00
2023-04-28T02:58:46.523Z,73.24
2023-04-28T03:01:13.295Z,72.86
2023-04-28T03:03:40.122Z,72.68
2023-04-28T03:06:06.824Z,72.94
2023-04-28T03:08:33.475Z,72.79
2023-04-28T03:11:00.172Z,71.44
2023-04-28T03:13:27.014Z,72.87
2023-04-28T03:15:53.798Z,73.14
2023-04-28T03:18:20.404Z,74.06
2023-04-28T03:20:47.151Z,74.00
2023-04-28T03:23:14.206Z,74.03
2023-04-28T03:25:41.051Z,75.57
2023-04-28T03:28:07.850Z,75.39
2023-04-28T03:30:34.441Z,73.99
2023-04-28T03:33:01.250Z,73.41
2023-04-28T03:35:28.158Z,72.89
2023-04-28T03:37:54.792Z,72.69
2023-04-28T03:40:21.604Z,73.06
2023-04-28T03:42:48.322Z,74.23
2023-04-28T03:45:15.024Z,75.19
2023-04-28T03:47:41.685Z,73.85
2023-04-28T03:50:08.552Z,74.72
2023-04-28T03:52:35.195Z,77.06
2023-04-28T03:55:01.938Z,77.49
2023-04-28T03:57:28.656Z,78.59
2023-04-28T03:59:55.283Z,77.31
2023-04-28T04:02:22.064Z,77.80
2023-04-28T04:04:49.141Z,78.94
2023-04-28T04:07:16.001Z,79.39
2023-04-28T04:09:42.780Z,78.48
2023-04-28T04:12:09.502Z,79.08
2023-04-28T04:14:36.117Z,79.11
2023-04-28T04:17:03.157Z,79.56
2023-04-28T04:19:29.795Z,79.49
2023-04-28T04:21:56.434Z,78.64
2023-04-28T04:24:23.223Z,78.01
2023-04-28T04:26:51.386Z,79.03
2023-04-28T04:29:19.565Z,77.83
2023-04-28T04:31:46.285Z,79.17
2023-04-28T04:34:12.981Z,78.25
2023-04-28T04:36:39.702Z,78.53
2023-04-28T04:39:06.438Z,80.40
2023-04-28T04:41:33.085Z,81.08
2023-04-28T04:43:59.733Z,80.42
2023-04-28T04:46:26.485Z,80.84
2023-04-28T04:48:53.191Z,82.96
2023-04-28T04:51:19.773Z,81.69
2023-04-28T04:53:46.461Z,78.92
2023-04-28T04:56:13.250Z,80.04
2023-04-28T04:58:40.182Z,80.49
2023-04-28T05:01:06.876Z,80.15
2023-04-28T05:03:33.759Z,80.16
2023-04-28T05:06:00.651Z,78.55
2023-04-28T05:08:27.575Z,74.75
2023-04-28T05:10:54.318Z,73.28
2023-04-28T05:13:20.925Z,72.98
2023-04-28T05:15:47.559Z,70.30
2023-04-28T05:18:14.488Z,71.92
2023-04-28T05:20:41.274Z,72.26
2023-04-28T05:23:07.895Z,71.12
2023-04-28T05:25:34.604Z,72.96
2023-04-28T05:28:04.411Z,72.89
2023-04-28T05:30:31.002Z,71.11
2023-04-28T05:32:57.724Z,68.93
2023-04-28T05:35:24.789Z,71.09
2023-04-28T05:37:51.618Z,69.74
2023-04-28T05:40:18.600Z,68.76
2023-04-28T05:42:45.219Z,69.59
2023-04-28T05:45:12.173Z,72.42
2023-04-28T05:47:38.898Z,69.07
2023-04-28T05:50:06.093Z,71.58
2023-04-28T05:52:32.905Z,70.04
2023-04-28T05:54:59.881Z,68.98
2023-04-28T05:57:26.717Z,68.51
2023-04-28T05:59:53.516Z,68.61
2023-04-28T06:02:22.060Z,67.35
2023-04-28T06:04:49.822Z,69.04
2023-04-28T06:07:16.889Z,69.51
2023-04-28T06:09:43.577Z,68.38
2023-04-28T06:12:10.384Z,67.80
2023-04-28T06:14:37.043Z,66.14
2023-04-28T06:17:04.095Z,66.21
2023-04-28T06:19:30.804Z,65.68
2023-04-28T06:21:57.492Z,65.74
2023-04-28T06:24:24.143Z,66.57
2023-04-28T06:26:50.745Z,62.94
2023-04-28T06:29:17.470Z,61.71
2023-04-28T06:31:44.271Z,62.38
2023-04-28T06:34:10.896Z,62.32
2023-04-28T06:36:37.524Z,63.36
2023-04-28T06:39:04.475Z,61.23
2023-04-28T06:41:31.121Z,60.03
2023-04-28T06:43:57.853Z,59.72
2023-04-28T06:46:24.553Z,62.29
2023-04-28T06:48:51.268Z,61.02
2023-04-28T06:51:17.885Z,61.53
2023-04-28T06:53:44.557Z,60.93
2023-04-28T06:56:11.802Z,59.48
2023-04-28T06:58:38.752Z,59.67
2023-04-28T07:01:05.436Z,61.21
2023-04-28T07:03:32.294Z,63.23
2023-04-28T07:05:59.190Z,60.56
2023-04-28T07:08:25.881Z,55.31
2023-04-28T07:10:52.502Z,55.04
2023-04-28T07:13:19.219Z,57.62
2023-04-28T07:15:45.869Z,58.01
2023-04-28T07:18:12.600Z,60.09
2023-04-28T07:20:39.390Z,57.50
2023-04-28T07:23:06.123Z,54.70
2023-04-28T07:25:32.794Z,55.11
2023-04-28T07:28:02.606Z,55.80
2023-04-28T07:30:29.232Z,55.18
2023-04-28T07:32:56.034Z,56.55
2023-04-28T07:35:23.226Z,49.82
2023-04-28T07:37:50.307Z,53.29
2023-04-28T07:40:17.537Z,52.24
2023-04-28T07:42:44.222Z,47.13
2023-04-28T07:45:11.746Z,50.41
2023-04-28T07:47:38.604Z,48.68
2023-04-28T07:50:05.968Z,46.63
2023-04-28T07:52:33.911Z,47.84
2023-04-28T07:55:00.786Z,47.27
2023-04-28T07:57:27.500Z,48.73
2023-04-28T07:59:54.157Z,47.54
2023-04-28T08:02:23.574Z,46.83
2023-04-28T08:04:50.367Z,45.31
2023-04-28T08:07:17.147Z,45.54
2023-04-28T08:09:43.800Z,46.90
2023-04-28T08:12:10.490Z,48.17
2023-04-28T08:14:37.095Z,47.71
2023-04-28T08:17:03.905Z,46.81
2023-04-28T08:19:30.909Z,44.95
2023-04-28T08:21:57.582Z,44.14
2023-04-28T08:24:24.264Z,43.00
2023-04-28T08:26:50.912Z,43.82
2023-04-28T08:29:17.549Z,41.22
2023-04-28T08:31:44.285Z,42.06
2023-04-28T08:34:10.947Z,43.08
2023-04-28T08:36:37.755Z,41.45
2023-04-28T08:39:05.373Z,41.14
2023-04-28T08:41:33.243Z,39.65
2023-04-28T08:43:59.969Z,41.84
2023-04-28T08:46:28.195Z,41.18
2023-04-28T08:49:00.994Z,40.13
2023-04-28T08:51:35.239Z,40.20
2023-04-28T08:54:24.941Z,40.61
2023-04-28T08:56:50.700Z,38.02
2023-04-28T08:59:18.379Z,37.03
2023-04-28T09:01:49.357Z,35.71
2023-04-28T09:04:20.448Z,36.76
2023-04-28T09:06:47.785Z,35.95
2023-04-28T09:09:25.642Z,37.01
2023-04-28T09:11:52.967Z,37.86
2023-04-28T09:14:19.687Z,38.42
2023-04-28T09:16:46.540Z,39.33
2023-04-28T09:19:13.427Z,38.82
2023-04-28T09:22:00.892Z,39.34
2023-04-28T09:24:31.573Z,35.92
2023-04-28T09:27:03.308Z,41.31
2023-04-28T09:29:33.310Z,37.21
2023-04-28T09:32:19.107Z,37.52
2023-04-28T09:34:50.675Z,37.48
2023-04-28T09:37:22.545Z,36.71
2023-04-28T09:39:51.934Z,36.33
2023-04-28T09:42:51.204Z,38.75
2023-04-28T09:45:17.954Z,36.45
2023-04-28T09:47:46.909Z,35.35
2023-04-28T09:50:15.658Z,36.78
2023-04-28T09:52:46.291Z,38.11
2023-04-28T09:55:13.258Z,37.98
2023-04-28T09:57:40.377Z,35.68
2023-04-28T10:00:08.461Z,36.23
2023-04-28T10:05:08.481Z,38.66
2023-04-28T10:07:36.384Z,36.68
2023-04-28T10:10:03.449Z,38.84
2023-04-28T10:12:30.118Z,40.91
2023-04-28T10:14:56.979Z,35.77
2023-04-28T10:17:23.804Z,40.09
2023-04-28T10:19:53.527Z,35.92
2023-04-28T10:22:45.222Z,33.29
2023-04-28T10:25:11.938Z,34.47
2023-04-28T10:27:47.091Z,34.63
2023-04-28T10:30:28.112Z,37.02
2023-04-28T10:33:14.237Z,35.20
2023-04-28T10:35:47.692Z,36.72
2023-04-28T10:38:15.309Z,34.50
2023-04-28T10:40:42.625Z,37.25
2023-04-28T10:43:11.675Z,34.32
2023-04-28T10:45:56.245Z,35.34
2023-04-28T10:48:46.540Z,36.64
2023-04-28T10:51:16.245Z,36.83
2023-04-28T10:53:42.825Z,38.24
2023-04-28T10:56:22.615Z,37.09
2023-04-28T10:58:53.961Z,33.85
2023-04-28T11:01:20.623Z,33.26
2023-04-28T11:03:47.497Z,35.51
2023-04-28T11:06:24.983Z,32.39
2023-04-28T11:08:52.751Z,33.99
2023-04-28T11:11:31.026Z,34.31
2023-04-28T11:14:17.529Z,36.18
2023-04-28T11:16:56.541Z,34.00
2023-04-28T11:19:24.502Z,33.58
2023-04-28T11:21:52.791Z,32.12
2023-04-28T11:24:19.641Z,32.77
2023-04-28T11:26:46.296Z,33.46
2023-04-28T11:29:12.934Z,36.92
2023-04-28T11:31:39.712Z,36.32
2023-04-28T11:34:13.246Z,37.05
2023-04-28T11:36:40.759Z,36.08
2023-04-28T11:39:12.402Z,35.08
2023-04-28T11:41:41.138Z,34.66
2023-04-28T11:44:19.303Z,35.08
2023-04-28T11:46:47.829Z,36.21
2023-04-28T11:49:14.525Z,34.13
2023-04-28T11:51:41.165Z,34.97
2023-04-28T11:54:07.958Z,34.99
2023-04-28T11:56:42.126Z,36.11
2023-04-28T11:59:10.335Z,36.22
2023-04-28T12:01:54.564Z,36.91
2023-04-28T12:04:28.527Z,38.00
2023-04-28T12:07:15.581Z,36.62
2023-04-28T12:10:10.715Z,37.16
2023-04-28T12:15:07.906Z,37.14
2023-04-28T12:17:41.927Z,36.49
2023-04-28T12:20:10.777Z,37.98
2023-04-28T12:22:48.599Z,38.42
2023-04-28T12:25:17.669Z,36.79
2023-04-28T12:28:04.140Z,36.23
2023-04-28T12:30:33.222Z,37.10
2023-04-28T12:32:59.994Z,36.87
2023-04-28T12:35:28.631Z,36.92
2023-04-28T12:37:55.945Z,38.45
2023-04-28T12:40:22.941Z,38.73
2023-04-28T12:42:49.653Z,38.04
2023-04-28T12:45:16.470Z,39.29
2023-04-28T12:47:43.359Z,38.35
2023-04-28T12:50:10.284Z,38.73
2023-04-28T12:52:36.881Z,39.92
2023-04-28T12:55:04.924Z,38.43
2023-04-28T12:57:31.765Z,39.61
2023-04-28T12:59:58.607Z,40.56
2023-04-28T13:02:25.556Z,40.73
2023-04-28T13:04:52.675Z,37.77
2023-04-28T13:07:19.388Z,38.03
2023-04-28T13:09:46.403Z,37.15
2023-04-28T13:12:13.520Z,38.29
2023-04-28T13:14:40.150Z,40.56
2023-04-28T13:17:06.932Z,37.35
2023-04-28T13:19:33.542Z,35.93
2023-04-28T13:22:00.281Z,38.44
2023-04-28T13:24:26.880Z,36.82
2023-04-28T13:26:53.532Z,37.31
2023-04-28T13:29:20.457Z,38.22
2023-04-28T13:31:47.124Z,38.29
2023-04-28T13:34:13.821Z,36.98
2023-04-28T13:36:40.497Z,35.92
2023-04-28T13:39:07.187Z,36.54
2023-04-28T13:41:33.865Z,40.46
2023-04-28T13:44:00.556Z,36.53
2023-04-28T13:46:27.748Z,37.64
2023-04-28T13:48:54.406Z,35.33
2023-04-28T13:51:21.014Z,37.79
2023-04-28T13:53:47.643Z,37.29
2023-04-28T13:56:14.375Z,36.31
2023-04-28T13:58:41.117Z,36.71
2023-04-28T14:01:07.799Z,36.28
2023-04-28T14:03:34.603Z,38.41
2023-04-28T14:06:01.680Z,37.59
2023-04-28T14:08:28.353Z,37.47
2023-04-28T14:10:55.190Z,35.73
2023-04-28T14:13:22.008Z,35.59
2023-04-28T14:15:58.693Z,37.25
2023-04-28T14:18:27.196Z,36.68
2023-04-28T14:20:54.203Z,37.08
2023-04-28T14:23:21.427Z,36.35
2023-04-28T14:25:48.153Z,36.14
2023-04-28T14:28:14.908Z,38.11
2023-04-28T14:30:41.605Z,38.47
2023-04-28T14:33:08.486Z,37.38
2023-04-28T14:35:35.265Z,38.06
2023-04-28T14:38:02.606Z,37.81
2023-04-28T14:40:29.279Z,38.21
2023-04-28T14:42:55.886Z,38.91
2023-04-28T14:45:22.729Z,39.84
2023-04-28T14:47:49.352Z,38.93
2023-04-28T14:50:16.230Z,38.61
2023-04-28T14:52:42.916Z,38.01
2023-04-28T14:55:09.699Z,37.41
2023-04-28T14:57:36.447Z,38.88
2023-04-28T15:00:03.974Z,37.22
2023-04-28T15:02:30.848Z,38.74
2023-04-28T15:04:57.981Z,37.74
2023-04-28T15:07:25.470Z,39.75
2023-04-28T15:09:52.115Z,36.78
2023-04-28T15:12:18.802Z,37.99
2023-04-28T15:14:45.484Z,38.15
2023-04-28T15:17:12.151Z,36.93
2023-04-28T15:19:39.107Z,39.14
2023-04-28T15:22:05.845Z,38.34
2023-04-28T15:24:32.596Z,39.12
2023-04-28T15:26:59.249Z,38.48
2023-04-28T15:29:26.030Z,39.66
2023-04-28T15:31:52.875Z,37.87
2023-04-28T15:34:19.892Z,37.91
2023-04-28T15:36:46.652Z,39.26
2023-04-28T15:39:13.433Z,41.59
2023-04-28T15:41:40.171Z,41.30
2023-04-28T15:44:07.038Z,39.35
2023-04-28T15:46:36.212Z,39.12
2023-04-28T15:49:02.838Z,38.74
2023-04-28T15:51:29.589Z,39.52
2023-04-28T15:53:56.220Z,40.31
2023-04-28T15:56:22.962Z,39.52
2023-04-28T15:58:50.053Z,39.90
2023-04-28T16:01:17.203Z,39.83
2023-04-28T16:03:46.617Z,40.91
2023-04-28T16:06:14.922Z,39.11
2023-04-28T16:08:41.596Z,40.40
2023-04-28T16:11:11.774Z,40.08
2023-04-28T16:13:38.552Z,40.41
2023-04-28T16:16:05.531Z,41.72
2023-04-28T16:18:32.287Z,41.95
2023-04-28T16:21:01.516Z,41.34
2023-04-28T16:23:28.169Z,41.68
2023-04-28T16:25:54.810Z,41.08
2023-04-28T16:28:24.587Z,41.19
2023-04-28T16:30:51.340Z,41.26
2023-04-28T16:33:18.126Z,40.83
2023-04-28T16:35:44.842Z,39.27
2023-04-28T16:38:11.454Z,43.08
2023-04-28T16:40:38.170Z,41.50
2023-04-28T16:43:04.805Z,42.15
2023-04-28T16:45:31.649Z,41.73
2023-04-28T16:47:58.427Z,41.00
2023-04-28T16:50:25.164Z,42.91
2023-04-28T16:52:51.787Z,43.31
2023-04-28T16:55:18.466Z,43.18
2023-04-28T16:57:45.124Z,44.11
2023-04-28T17:00:12.401Z,44.06
2023-04-28T17:02:39.160Z,43.10
2023-04-28T17:05:06.168Z,44.15
2023-04-28T17:07:32.882Z,42.84
2023-04-28T17:09:59.805Z,43.65
2023-04-28T17:12:26.643Z,44.88
2023-04-28T17:14:53.350Z,48.73
2023-04-28T17:17:20.319Z,47.35
2023-04-28T17:19:50.081Z,45.58
2023-04-28T17:22:16.921Z,45.38
2023-04-28T17:24:43.569Z,45.29
2023-04-28T17:27:10.273Z,44.12
2023-04-28T17:29:36.960Z,46.73
2023-04-28T17:32:03.766Z,44.61
2023-04-28T17:34:30.568Z,47.15
2023-04-28T17:36:57.237Z,45.85
2023-04-28T17:39:23.913Z,45.16
2023-04-28T17:41:50.645Z,47.72
2023-04-28T17:44:17.289Z,47.15
2023-04-28T17:46:44.065Z,46.96
2023-04-28T17:49:10.758Z,46.70
2023-04-28T17:51:37.412Z,48.47
2023-04-28T17:54:04.284Z,49.53
2023-04-28T17:56:31.004Z,48.01
2023-04-28T17:58:57.623Z,46.59
2023-04-28T18:01:24.427Z,47.65
2023-04-28T18:03:51.207Z,47.87
2023-04-28T18:06:18.000Z,49.20
2023-04-28T18:08:44.653Z,49.34
2023-04-28T18:11:11.404Z,49.26
2023-04-28T18:13:38.264Z,50.61
2023-04-28T18:16:05.227Z,49.63
2023-04-28T18:18:33.898Z,52.13
2023-04-28T18:21:02.189Z,50.41
2023-04-28T18:23:29.226Z,52.11
2023-04-28T18:25:56.004Z,53.22
2023-04-28T18:28:22.769Z,53.30
2023-04-28T18:30:50.146Z,54.20
2023-04-28T18:33:17.208Z,55.92
2023-04-28T18:35:44.278Z,56.38
2023-04-28T18:38:10.991Z,56.98
2023-04-28T18:40:39.591Z,58.66
2023-04-28T18:43:07.377Z,59.96
2023-04-28T18:45:40.117Z,61.19
2023-04-28T18:48:07.422Z,60.44
2023-04-28T18:50:34.669Z,59.43
2023-04-28T18:53:04.442Z,59.44
2023-04-28T18:55:33.941Z,59.69
2023-04-28T18:58:00.956Z,60.61
2023-04-28T19:00:27.606Z,61.63
2023-04-28T19:02:54.539Z,61.66
2023-04-28T19:05:21.420Z,61.15
2023-04-28T19:07:48.105Z,59.29
2023-04-28T19:10:14.749Z,60.25
2023-04-28T19:12:43.944Z,60.67
2023-04-28T19:15:10.824Z,61.82
2023-04-28T19:17:37.906Z,61.41
2023-04-28T19:20:05.239Z,61.06
2023-04-28T19:22:36.996Z,62.43
2023-04-28T19:25:05.227Z,62.91
2023-04-28T19:27:33.937Z,64.11
2023-04-28T19:30:01.951Z,65.38
2023-04-28T19:32:29.231Z,65.45
2023-04-28T19:34:56.069Z,67.95
2023-04-28T19:37:23.069Z,67.65
2023-04-28T19:39:50.371Z,69.00
2023-04-28T19:42:17.959Z,69.85
2023-04-28T19:44:46.650Z,70.10
2023-04-28T19:47:13.464Z,70.18
2023-04-28T19:49:40.131Z,70.91
2023-04-28T19:52:06.892Z,70.48
2023-04-28T19:54:33.535Z,70.06
2023-04-28T19:57:00.282Z,71.15
2023-04-28T19:59:27.097Z,71.07
2023-04-28T20:01:53.822Z,74.68
2023-04-28T20:04:20.663Z,74.02
2023-04-28T20:06:47.457Z,73.59
2023-04-28T20:09:14.117Z,74.48
2023-04-28T20:11:40.748Z,74.43
2023-04-28T20:14:07.601Z,73.47
2023-04-28T20:16:34.443Z,74.62
2023-04-28T20:19:01.067Z,75.20
2023-04-28T20:21:27.677Z,77.34
2023-04-28T20:23:54.462Z,76.81
2023-04-28T20:26:21.142Z,76.73
2023-04-28T20:28:47.969Z,75.65
2023-04-28T20:31:14.649Z,74.85
2023-04-28T20:33:41.473Z,75.66
2023-04-28T20:36:08.145Z,74.96
2023-04-28T20:38:34.797Z,75.83
2023-04-28T20:41:01.416Z,75.75
2023-04-28T20:43:28.069Z,75.08
2023-04-28T20:45:54.987Z,75.29
2023-04-28T20:48:21.675Z,75.05
2023-04-28T20:50:48.359Z,75.50
2023-04-28T20:53:15.053Z,75.43
2023-04-28T20:55:41.872Z,75.72
2023-04-28T20:58:08.526Z,76.04
2023-04-28T21:00:35.204Z,75.21
2023-04-28T21:03:02.049Z,74.01
2023-04-28T21:05:28.760Z,73.41
2023-04-28T21:07:55.405Z,72.35
2023-04-28T21:10:22.075Z,73.11
2023-04-28T21:12:48.894Z,72.17
2023-04-28T21:15:15.763Z,72.30
2023-04-28T21:17:43.535Z,72.03
2023-04-28T21:20:10.965Z,71.30
2023-04-28T21:22:37.734Z,69.49
2023-04-28T21:25:04.681Z,71.04
2023-04-28T21:27:31.520Z,69.99
2023-04-28T21:29:58.163Z,68.79
2023-04-28T21:32:24.843Z,68.24
2023-04-28T21:34:51.631Z,67.34
2023-04-28T21:37:18.293Z,66.80
2023-04-28T21:39:44.959Z,66.17
2023-04-28T21:42:11.585Z,66.04
2023-04-28T21:44:38.252Z,65.99
2023-04-28T21:47:04.975Z,65.62
2023-04-28T21:49:31.622Z,65.95
2023-04-28T21:51:58.366Z,65.40
2023-04-28T21:54:25.034Z,65.84
2023-04-28T21:56:51.672Z,65.55
2023-04-28T21:59:18.377Z,65.38
2023-04-28T22:01:45.206Z,64.46
2023-04-28T22:04:12.002Z,65.31
2023-04-28T22:06:39.625Z,65.71
2023-04-28T22:09:06.306Z,65.49
2023-04-28T22:11:32.960Z,66.49
2023-04-28T22:13:59.655Z,67.12
2023-04-28T22:16:26.834Z,67.01
2023-04-28T22:18:53.808Z,68.14
2023-04-28T22:21:23.209Z,68.87
2023-04-28T22:23:49.924Z,71.81
2023-04-28T22:26:16.816Z,71.33
2023-04-28T22:28:43.491Z,72.60
2023-04-28T22:31:10.172Z,73.08
2023-04-28T22:33:36.807Z,71.79
2023-04-28T22:36:03.493Z,72.26
2023-04-28T22:38:30.163Z,72.00
2023-04-28T22:40:56.807Z,74.48
2023-04-28T22:43:23.422Z,75.26
2023-04-28T22:45:50.470Z,75.80
2023-04-28T22:48:17.062Z,76.28
2023-04-28T22:50:45.194Z,76.63
2023-04-28T22:53:11.940Z,77.81
2023-04-28T22:55:38.592Z,77.07
2023-04-28T22:58:05.293Z,75.08
2023-04-28T23:00:31.973Z,73.80
2023-04-28T23:02:58.843Z,74.78
2023-04-28T23:05:25.669Z,76.28
2023-04-28T23:07:52.330Z,75.88
2023-04-28T23:10:19.069Z,76.28
2023-04-28T23:12:45.708Z,78.36
2023-04-28T23:15:12.568Z,77.74
2023-04-28T23:17:39.309Z,75.93
2023-04-28T23:20:06.514Z,75.42
2023-04-28T23:22:33.215Z,76.17
2023-04-28T23:24:59.851Z,75.77
2023-04-28T23:27:26.552Z,75.83
2023-04-28T23:29:53.400Z,75.38
2023-04-28T23:32:20.091Z,75.93
2023-04-28T23:34:46.858Z,78.69
2023-04-28T23:37:13.576Z,76.83
2023-04-28T23:39:40.180Z,77.23
2023-04-28T23:42:06.860Z,77.24
2023-04-28T23:44:33.505Z,76.69
2023-04-28T23:47:00.148Z,78.52
2023-04-28T23:49:26.817Z,78.06
2023-04-28T23:51:53.410Z,78.93
2023-04-28T23:54:20.137Z,79.36
2023-04-28T23:56:46.777Z,79.42
2023-04-28T23:59:13.424Z,80.56
